• Join FlightAware (Why Join?)
  • Login
  • US Flag 
11:45AM EDT


 

Airport Tracker/Info


-or-


 

Live Flight TrackerFlight Track Log ✈ FLG4222 ✈ 25-Sep-2013 ✈ KDTW - KBGM

Flight Track Log - Related Links

Times and Time Zones

All times are in EDT time to prevent confusion due to time zone crossing. See the FLG4222 flight status page for this flight to view local times or setup timezone preferences in your user account.

Time Position Orientation Groundspeed Altitude Reporting Facility
EDT Latitude Longitude Course Direction KTS MPH feet Rate Location/Type
10:07AM 42.1947 -83.3514 184° South 159 183 1,300  Level Cleveland Center
10:08AM 42.1625 -83.3544 184° South 180 207 2,600 2,280 Climbing Cleveland Center
10:09AM 42.0847 -83.3614 184° South 231 266 5,800 2,880 Climbing Cleveland Center
10:10AM 42.0453 -83.2936 128° Southeast 269 310 8,600 2,040 Climbing Cleveland Center
10:11AM 42.1022 -83.2119 47° Northeast 299 344 10,100 1,680 Climbing Cleveland Center
10:12AM 42.1447 -83.1061 62° Northeast 339 390 12,100 1,920 Climbing Cleveland Center
10:13AM 42.1858 -82.9889 65° Northeast 348 400 14,100 1,980 Climbing Cleveland Center
10:14AM 42.2344 -82.8444 66° East 356 410 16,300 1,740 Climbing Cleveland Center
10:16AM 42.2764 -82.7189 66° East 367 422 17,700 1,140 Climbing Cleveland Center
10:17AM 42.3208 -82.5894 65° Northeast 377 434 18,700 960 Climbing Cleveland Center
10:18AM 42.3647 -82.4508 67° East 398 458 19,700 960 Climbing Cleveland Center
10:19AM 42.3614 -82.2989 92° East 408 470 20,700 1,020 Climbing Cleveland Center
10:20AM 42.3536 -82.1211 93° East 412 474 21,900 1,020 Climbing Cleveland Center
10:21AM 42.3472 -81.9636 93° East 414 476 22,900 960 Climbing Cleveland Center
10:22AM 42.3397 -81.8064 94° East 415 478 23,900 960 Climbing Cleveland Center
10:23AM 42.3328 -81.6494 93° East 414 476 25,000 960 Climbing Cleveland Center
10:24AM 42.3247 -81.4922 94° East 415 478 26,000 720 Climbing Cleveland Center
10:25AM 42.3178 -81.3344 93° East 416 479 26,600 480 Climbing Cleveland Center
10:26AM 42.3081 -81.1436 94° East 430 495 27,000 180 Climbing Cleveland Center
10:27AM 42.2994 -80.9744 94° East 443 510 27,000  Level Cleveland Center
10:28AM 42.2903 -80.8014 94° East 454 522 27,000  Level Cleveland Center
10:29AM 42.2806 -80.6275 94° East 459 528 27,000  Level Cleveland Center
10:30AM 42.2711 -80.4522 94° East 464 534 27,000  Level Cleveland Center
10:31AM 42.2617 -80.2758 94° East 468 539 27,000  Level Cleveland Center
10:32AM 42.2517 -80.0989 94° East 469 540 27,000  Level Cleveland Center
10:33AM 42.2403 -79.9264 95° East 470 541 27,000  Level Cleveland Center
10:34AM 42.2272 -79.7158 95° East 472 543 27,000  Level Cleveland Center
10:35AM 42.2156 -79.5386 95° East 475 547 27,000  Level Cleveland Center
10:36AM 42.2039 -79.3622 95° East 474 545 27,000  Level Cleveland Center
10:37AM 42.1919 -79.1858 95° East 475 547 27,000  Level Cleveland Center
10:38AM 42.1906 -79.0081 91° East 476 548 27,000  Level Cleveland Center
10:39AM 42.1939 -78.8219 89° East 473 544 27,000  Level Cleveland Center
10:40AM 42.1967 -78.6083 89° East 478 550 27,000 -120 Level Cleveland Center
10:41AM 42.2006 -78.4306 88° East 478 550 26,800 -540 Descending Cleveland Center
10:42AM 42.2025 -78.2514 89° East 480 552 26,000 -1,020 Descending Cleveland Center
10:43AM 42.2039 -78.0708 89° East 486 559 24,800 -1,500 Descending Cleveland Center
10:44AM 42.2064 -77.8972 89° East 474 545 22,900 -2,040 Descending Cleveland Center
10:46AM 42.2081 -77.6911 89° East 467 537 20,600 -2,040 Descending Cleveland Center
10:47AM 42.2094 -77.5272 89° East 443 510 18,700 -1,800 Descending Cleveland Center
10:48AM 42.2097 -77.3658 90° East 433 498 16,900 -1,800 Descending Cleveland Center
10:49AM 42.2100 -77.2106 90° East 419 482 15,100 -960 Descending Cleveland Center
10:50AM 42.2097 -77.0536 90° East 423 487 15,000 -1,020 Descending Cleveland Center
10:51AM 42.2119 -76.8681 89° East 415 478 13,100 -1,800 Descending Cleveland Center
10:52AM 42.2131 -76.7322 89° East 378 435 11,400 -1,320 Descending Cleveland Center
10:53AM 42.1858 -76.6194 108° East 329 379 10,400 -960 Descending Cleveland Center
10:54AM 42.1592 -76.5175 109° East 298 343 9,400 -780 Descending Cleveland Center
10:55AM 42.1314 -76.4164 110° East 290 334 8,900 -720 Descending Cleveland Center
10:56AM 42.1008 -76.3161 112° Southeast 291 335 8,000 -1,020 Descending Cleveland Center
10:57AM 42.0683 -76.2050 111° Southeast 274 315 6,900 -1,200 Descending Cleveland Center
10:58AM 42.0775 -76.1269 81° East 245 282 5,600 -1,320 Descending New York Center
10:59AM 42.0875 -76.0383 81° East 233 268 4,300 -960 Descending New York Center
11:00AM 42.1136 -75.9678 63° Northeast 211 243 3,700 -660 Descending New York Center
11:01AM 42.1500 -75.9428 27° Northeast 166 191 3,000 -900 Descending New York Center
11:02AM 42.1828 -75.9592 340° North 125 144 2,000 -1,020 Descending New York Center